Time;durP1;ratioP1;P1;durP2;ratioP2;P2;SDS_P1;SDS_P2;PMS_P1;PMS_P2;Temp;Humidity;BMP_temperature;BMP_pressure;BME280_temperature;BME280_humidity;BME280_pressure;Samples;Min_cycle;Max_cycle;Signal;HPM_P1;HPM_P2
2021/12/15 00:02:10;;;;;;;30.88;17.52;;;4.00;99.90;;;;;;5089371;28;20043;-57
2021/12/15 00:04:36;;;;;;;32.90;18.27;;;3.90;99.90;;;;;;5071115;28;20028;-58
2021/12/15 00:07:01;;;;;;;28.95;17.02;;;3.90;99.90;;;;;;5088695;28;20418;-57
2021/12/15 00:09:29;;;;;;;30.23;18.67;;;4.00;99.90;;;;;;5088970;28;20024;-56
2021/12/15 00:11:55;;;;;;;32.13;17.13;;;3.90;99.90;;;;;;5089522;28;20028;-58
2021/12/15 00:14:23;;;;;;;33.65;18.58;;;3.90;99.90;;;;;;5089995;28;20406;-56
2021/12/15 00:16:50;;;;;;;34.40;18.13;;;4.00;99.90;;;;;;5089326;28;20083;-56
2021/12/15 00:19:16;;;;;;;28.02;16.88;;;3.90;99.90;;;;;;5089992;28;20034;-58
2021/12/15 00:21:42;;;;;;;25.05;15.52;;;3.90;99.90;;;;;;5090500;28;20020;-58
2021/12/15 00:24:09;;;;;;;28.92;16.55;;;3.90;99.90;;;;;;5089880;28;20028;-56
2021/12/15 00:26:36;;;;;;;24.77;15.95;;;3.90;99.90;;;;;;5089572;28;20034;-56
2021/12/15 00:29:05;;;;;;;28.00;16.35;;;3.90;99.90;;;;;;5089644;28;20501;-57
2021/12/15 00:31:34;;;;;;;28.95;17.10;;;4.00;99.90;;;;;;5071989;28;20036;-58
2021/12/15 00:34:04;;;;;;;23.70;15.10;;;4.00;99.90;;;;;;5089768;28;20099;-57
2021/12/15 00:36:30;;;;;;;24.20;14.77;;;4.00;99.90;;;;;;5089896;28;20032;-57
2021/12/15 00:38:59;;;;;;;23.63;14.48;;;4.00;99.90;;;;;;5089250;28;20107;-57
2021/12/15 00:41:28;;;;;;;21.98;14.00;;;4.10;99.90;;;;;;5088454;28;20050;-57
2021/12/15 00:43:53;;;;;;;20.20;13.52;;;4.10;99.90;;;;;;5088596;28;20368;-58
2021/12/15 00:46:19;;;;;;;19.08;12.05;;;4.10;99.90;;;;;;5088989;28;20287;-56
2021/12/15 00:48:47;;;;;;;24.77;13.38;;;4.10;99.90;;;;;;5089995;28;20023;-57
2021/12/15 00:51:13;;;;;;;21.00;12.50;;;4.10;99.90;;;;;;5089111;28;20024;-58
2021/12/15 00:53:39;;;;;;;19.15;12.38;;;4.10;99.90;;;;;;5090525;28;20016;-56
2021/12/15 00:56:05;;;;;;;21.92;13.45;;;4.10;99.90;;;;;;5092219;28;20146;-57
2021/12/15 00:58:30;;;;;;;22.40;13.32;;;4.00;99.90;;;;;;5093599;28;20504;-57
2021/12/15 01:00:59;;;;;;;19.38;12.45;;;3.90;99.90;;;;;;5093526;28;20039;-58
2021/12/15 01:03:29;;;;;;;19.63;12.80;;;3.90;99.90;;;;;;5094094;28;20028;-57
2021/12/15 01:06:02;;;;;;;20.98;13.00;;;3.90;99.90;;;;;;5094023;28;20023;-57
2021/12/15 01:08:29;;;;;;;22.50;13.68;;;3.90;99.90;;;;;;5093405;28;20024;-58
2021/12/15 01:21:54;;;;;;;20.60;12.82;;;3.70;99.90;;;;;;5092299;28;20032;-56
2021/12/15 01:24:19;;;;;;;22.13;13.43;;;3.70;99.90;;;;;;5091912;28;20026;-55
2021/12/15 01:26:45;;;;;;;21.00;12.90;;;3.70;99.90;;;;;;5092539;28;20024;-56
2021/12/15 01:29:11;;;;;;;18.92;13.82;;;3.70;99.90;;;;;;5092363;28;20024;-56
2021/12/15 01:31:37;;;;;;;23.60;13.60;;;3.70;99.90;;;;;;5092204;28;20081;-57
2021/12/15 01:34:03;;;;;;;22.35;13.60;;;3.70;99.90;;;;;;5092395;28;20081;-57
2021/12/15 01:36:29;;;;;;;19.92;13.18;;;3.70;99.90;;;;;;5092647;28;20035;-57
2021/12/15 01:38:55;;;;;;;22.00;13.80;;;3.70;99.90;;;;;;5092604;28;20028;-57
2021/12/15 01:41:23;;;;;;;17.90;11.77;;;3.70;99.90;;;;;;5093025;28;20027;-58
2021/12/15 01:49:24;;;;;;;20.45;13.00;;;3.80;99.90;;;;;;5092600;28;20058;-58
2021/12/15 01:51:50;;;;;;;19.95;13.25;;;3.70;99.90;;;;;;5092679;28;20476;-58
2021/12/15 01:54:17;;;;;;;17.05;10.77;;;3.70;99.90;;;;;;5091640;28;20036;-57
2021/12/15 01:56:44;;;;;;;18.27;11.73;;;3.80;99.90;;;;;;5092540;28;20043;-56
2021/12/15 01:59:11;;;;;;;16.63;11.18;;;3.70;99.90;;;;;;5092845;28;20012;-57
2021/12/15 02:01:37;;;;;;;17.40;10.88;;;3.70;99.90;;;;;;5092792;28;20527;-56
2021/12/15 02:04:04;;;;;;;16.98;12.07;;;3.70;99.90;;;;;;5092392;28;20063;-58
2021/12/15 02:06:29;;;;;;;17.95;11.02;;;3.70;99.90;;;;;;5092213;28;20020;-57
2021/12/15 02:08:56;;;;;;;19.75;11.70;;;3.70;99.90;;;;;;5091584;28;20043;-57
2021/12/15 02:11:25;;;;;;;21.77;12.50;;;3.70;99.90;;;;;;5091459;28;20027;-56
2021/12/15 02:13:53;;;;;;;17.92;10.70;;;3.70;99.90;;;;;;5091444;28;20379;-58
2021/12/15 02:16:19;;;;;;;18.60;11.85;;;3.70;99.90;;;;;;5072501;28;20059;-57
2021/12/15 02:18:47;;;;;;;18.92;12.05;;;3.80;99.90;;;;;;5092268;28;20024;-58
2021/12/15 02:21:17;;;;;;;16.90;10.32;;;3.80;99.90;;;;;;5091863;28;20055;-58
2021/12/15 02:23:49;;;;;;;14.63;9.98;;;3.80;99.90;;;;;;5091452;28;20047;-57
2021/12/15 02:26:24;;;;;;;17.52;10.40;;;3.90;99.90;;;;;;5092084;28;20524;-57
2021/12/15 02:28:58;;;;;;;15.30;10.77;;;3.90;99.90;;;;;;5092393;28;20496;-56
2021/12/15 02:31:39;;;;;;;15.75;9.95;;;4.00;99.90;;;;;;5091394;28;20404;-56
2021/12/15 02:39:18;;;;;;;20.40;11.43;;;3.80;99.90;;;;;;5092003;28;20027;-57
2021/12/15 02:41:46;;;;;;;16.13;10.55;;;3.80;99.90;;;;;;5091345;28;20141;-57
2021/12/15 02:44:19;;;;;;;19.73;13.00;;;3.70;99.90;;;;;;5090635;28;20027;-57
2021/12/15 02:46:46;;;;;;;20.15;13.70;;;3.70;99.90;;;;;;5091059;28;20020;-57
2021/12/15 02:49:15;;;;;;;30.20;15.45;;;3.70;99.90;;;;;;5091878;28;20032;-57
2021/12/15 02:51:43;;;;;;;17.55;11.82;;;3.70;99.90;;;;;;5091292;28;20114;-58
2021/12/15 02:54:12;;;;;;;22.67;13.23;;;3.70;99.90;;;;;;5090276;28;20103;-56
2021/12/15 02:56:38;;;;;;;23.58;12.93;;;3.70;99.90;;;;;;5091670;28;20028;-57
2021/12/15 02:59:06;;;;;;;19.95;12.48;;;3.70;99.90;;;;;;5091663;28;20020;-55
2021/12/15 03:02:01;;;;;;;23.88;14.50;;;3.70;99.90;;;;;;5092246;28;20025;-57
2021/12/15 03:04:45;;;;;;;26.63;14.90;;;3.70;99.90;;;;;;5091663;28;20073;-57
2021/12/15 03:18:00;;;;;;;22.52;13.77;;;3.80;99.90;;;;;;5090621;28;20024;-58
2021/12/15 03:20:28;;;;;;;18.88;12.32;;;3.80;99.90;;;;;;5091478;28;20099;-58
2021/12/15 03:22:57;;;;;;;20.05;11.77;;;3.80;99.90;;;;;;5091409;28;20502;-57
2021/12/15 03:25:25;;;;;;;22.23;12.23;;;3.80;99.90;;;;;;5073072;28;20498;-58
2021/12/15 03:36:08;;;;;;;20.73;13.60;;;3.70;99.90;;;;;;5090967;28;20078;-57
2021/12/15 03:38:37;;;;;;;25.92;13.80;;;3.80;99.90;;;;;;5091398;28;20058;-57
2021/12/15 03:41:10;;;;;;;19.25;12.07;;;3.80;99.90;;;;;;5072986;28;20020;-57
2021/12/15 03:43:37;;;;;;;17.75;12.52;;;3.80;99.90;;;;;;5091165;28;20016;-57
2021/12/15 03:46:09;;;;;;;20.85;12.30;;;3.70;99.90;;;;;;5072598;28;20031;-58
2021/12/15 03:48:38;;;;;;;17.27;12.17;;;3.70;99.90;;;;;;5091119;28;20083;-57
2021/12/15 03:51:04;;;;;;;19.92;11.73;;;3.70;99.90;;;;;;5090965;28;20297;-54
2021/12/15 03:53:30;;;;;;;28.08;13.75;;;3.60;99.90;;;;;;5090941;28;20032;-58
2021/12/15 03:55:56;;;;;;;23.55;14.68;;;3.60;99.90;;;;;;5090706;28;20028;-58
2021/12/15 03:58:24;;;;;;;18.65;12.80;;;3.60;99.90;;;;;;5090667;28;20023;-58
2021/12/15 04:00:54;;;;;;;30.25;16.05;;;3.60;99.90;;;;;;5071919;28;20024;-58
2021/12/15 04:03:26;;;;;;;140.05;51.67;;;3.60;99.90;;;;;;5076838;28;20419;-57
2021/12/15 04:05:57;;;;;;;86.10;35.33;;;3.60;99.90;;;;;;5070551;28;20025;-56
2021/12/15 04:08:24;;;;;;;25.58;14.88;;;3.60;99.90;;;;;;5070412;28;20017;-57
2021/12/15 04:10:53;;;;;;;22.75;14.52;;;3.60;99.90;;;;;;5070553;28;20075;-58
2021/12/15 04:13:18;;;;;;;52.58;23.17;;;3.50;99.90;;;;;;5066444;28;20647;-57
2021/12/15 04:15:52;;;;;;;26.77;15.63;;;3.50;99.90;;;;;;5067920;28;20074;-56
2021/12/15 04:18:18;;;;;;;21.27;12.98;;;3.50;99.90;;;;;;5070171;28;20391;-57
2021/12/15 04:20:44;;;;;;;24.50;15.50;;;3.60;99.90;;;;;;5070203;28;20025;-58
2021/12/15 04:23:12;;;;;;;29.92;16.73;;;3.50;99.90;;;;;;5069796;28;20025;-56
2021/12/15 04:25:41;;;;;;;33.67;18.73;;;3.60;99.90;;;;;;5070152;28;20052;-56
2021/12/15 04:28:14;;;;;;;27.42;15.13;;;3.60;99.90;;;;;;5051532;28;20020;-57
2021/12/15 04:30:45;;;;;;;37.35;18.63;;;3.50;99.90;;;;;;5070110;28;20020;-57
2021/12/15 04:33:15;;;;;;;73.78;31.70;;;3.60;99.90;;;;;;5069982;28;20025;-56
2021/12/15 04:35:42;;;;;;;26.60;16.13;;;3.60;99.90;;;;;;5070137;28;20021;-55
2021/12/15 04:38:09;;;;;;;22.80;14.40;;;3.60;99.90;;;;;;5069955;28;20032;-58
2021/12/15 04:40:38;;;;;;;31.23;15.63;;;3.50;99.90;;;;;;5070007;28;20021;-57
2021/12/15 04:43:04;;;;;;;25.08;14.18;;;3.50;99.90;;;;;;5069767;28;20028;-58
2021/12/15 04:45:30;;;;;;;18.42;12.45;;;3.50;99.90;;;;;;5070194;28;20025;-56
2021/12/15 04:47:57;;;;;;;24.92;15.48;;;3.50;99.90;;;;;;5052220;28;20024;-55
2021/12/15 04:50:26;;;;;;;26.85;15.80;;;3.60;99.90;;;;;;5069914;28;20085;-57
2021/12/15 04:52:53;;;;;;;25.67;15.27;;;3.60;99.90;;;;;;5070193;28;20553;-58
2021/12/15 04:55:20;;;;;;;29.75;16.58;;;3.60;99.90;;;;;;5069765;28;20380;-57
2021/12/15 04:57:47;;;;;;;38.72;19.33;;;3.50;99.90;;;;;;5070002;28;20025;-58
2021/12/15 05:00:17;;;;;;;27.70;16.38;;;3.60;99.90;;;;;;5070078;28;20027;-57
2021/12/15 05:02:42;;;;;;;28.60;17.30;;;3.60;99.90;;;;;;5069714;28;20009;-58
2021/12/15 05:05:11;;;;;;;81.63;44.03;;;3.60;99.90;;;;;;5069981;28;20029;-57
2021/12/15 05:07:38;;;;;;;25.15;16.33;;;3.60;99.90;;;;;;5069923;28;20016;-55
2021/12/15 05:10:05;;;;;;;19.33;13.32;;;3.60;99.90;;;;;;5069654;28;20029;-58
2021/12/15 05:12:33;;;;;;;17.27;12.70;;;3.70;99.90;;;;;;5069754;28;20032;-55
2021/12/15 05:14:59;;;;;;;23.33;13.13;;;3.70;99.90;;;;;;5068459;28;20043;-58
2021/12/15 05:17:25;;;;;;;16.75;12.27;;;3.60;99.90;;;;;;5069266;28;20044;-57
2021/12/15 05:19:58;;;;;;;17.58;11.50;;;3.70;99.90;;;;;;5069750;28;20187;-58
2021/12/15 05:22:25;;;;;;;14.98;12.00;;;3.70;99.90;;;;;;5069538;28;20021;-57
2021/12/15 05:24:50;;;;;;;19.90;13.35;;;3.60;99.90;;;;;;5069603;28;20063;-57
2021/12/15 05:27:17;;;;;;;18.90;11.50;;;3.70;99.90;;;;;;5069591;28;20451;-57
2021/12/15 05:29:45;;;;;;;15.35;12.10;;;3.70;99.90;;;;;;5070658;28;20165;-58
2021/12/15 05:32:13;;;;;;;16.23;11.70;;;3.80;99.90;;;;;;5070646;28;20028;-57
2021/12/15 05:34:40;;;;;;;15.52;11.40;;;3.70;99.90;;;;;;5070887;28;20029;-57
2021/12/15 05:37:06;;;;;;;17.20;11.10;;;3.80;99.90;;;;;;5070571;28;20119;-56
2021/12/15 05:39:32;;;;;;;14.10;10.35;;;3.80;99.90;;;;;;5071126;28;20099;-58
2021/12/15 05:41:58;;;;;;;20.52;12.35;;;3.80;99.90;;;;;;5073245;28;20135;-58
2021/12/15 05:44:25;;;;;;;21.77;13.50;;;3.70;99.90;;;;;;5072887;28;20017;-56
2021/12/15 05:46:54;;;;;;;18.48;13.40;;;3.80;99.90;;;;;;5054919;28;20476;-64
2021/12/15 05:49:20;;;;;;;18.05;12.50;;;3.80;99.90;;;;;;5072927;28;20071;-59
2021/12/15 05:51:48;;;;;;;16.95;11.27;;;3.70;99.90;;;;;;5073022;28;20391;-55
2021/12/15 05:54:14;;;;;;;18.02;12.07;;;3.70;99.90;;;;;;5072865;28;20046;-58
2021/12/15 05:56:41;;;;;;;16.35;11.75;;;3.70;99.90;;;;;;5073013;28;20119;-57
2021/12/15 05:59:07;;;;;;;15.57;11.35;;;3.70;99.90;;;;;;5054428;28;20035;-57
2021/12/15 06:01:33;;;;;;;18.83;12.75;;;3.60;99.90;;;;;;5073501;28;20040;-58
2021/12/15 06:04:00;;;;;;;21.17;13.45;;;3.60;99.90;;;;;;5073930;28;20025;-58
2021/12/15 06:06:27;;;;;;;17.60;11.88;;;3.60;99.90;;;;;;5073828;28;20025;-57
2021/12/15 06:08:54;;;;;;;19.08;14.32;;;3.50;99.90;;;;;;5073969;28;20029;-58
2021/12/15 06:11:20;;;;;;;18.88;14.48;;;3.60;99.90;;;;;;5073642;28;20475;-58
2021/12/15 06:13:48;;;;;;;19.98;13.95;;;3.60;99.90;;;;;;5073358;28;20110;-58
2021/12/15 06:16:15;;;;;;;26.60;17.30;;;3.60;99.90;;;;;;5071707;28;20124;-57
2021/12/15 06:18:41;;;;;;;30.90;19.52;;;3.60;99.90;;;;;;5072544;28;20106;-57
2021/12/15 06:21:07;;;;;;;71.55;35.45;;;3.60;99.90;;;;;;5072178;28;20464;-58
2021/12/15 06:23:32;;;;;;;24.13;15.77;;;3.60;99.90;;;;;;5072549;28;20537;-57
2021/12/15 06:26:01;;;;;;;33.88;20.02;;;3.60;99.90;;;;;;5072240;28;20024;-57
2021/12/15 06:28:29;;;;;;;24.08;16.00;;;3.60;99.90;;;;;;5072350;28;20025;-58
2021/12/15 06:30:56;;;;;;;23.23;14.25;;;3.60;99.90;;;;;;5072069;28;20058;-56
2021/12/15 06:33:23;;;;;;;18.60;12.60;;;3.60;99.90;;;;;;5072191;28;20024;-56
2021/12/15 06:35:54;;;;;;;18.15;12.63;;;3.50;99.90;;;;;;5072129;28;20413;-56
2021/12/15 06:38:29;;;;;;;22.65;12.88;;;3.60;99.90;;;;;;5072003;28;20016;-57
2021/12/15 06:40:56;;;;;;;17.90;12.45;;;3.60;99.90;;;;;;5072089;28;20019;-56
2021/12/15 06:43:24;;;;;;;20.55;13.68;;;3.50;99.90;;;;;;5071990;28;20055;-56
2021/12/15 06:59:32;;;;;;;15.95;12.55;;;3.70;99.90;;;;;;5071552;28;20031;-57
2021/12/15 07:01:57;;;;;;;15.95;11.77;;;3.70;99.90;;;;;;5071592;28;20638;-57
2021/12/15 07:04:24;;;;;;;17.17;11.05;;;3.70;99.90;;;;;;5071419;28;20112;-56
2021/12/15 07:06:51;;;;;;;21.38;11.90;;;3.80;99.90;;;;;;5071572;28;20048;-58
2021/12/15 07:09:17;;;;;;;17.83;12.55;;;3.80;99.90;;;;;;5071267;28;20029;-56
2021/12/15 07:11:43;;;;;;;17.42;12.82;;;3.80;99.90;;;;;;5071579;28;20476;-56
2021/12/15 07:14:09;;;;;;;15.38;11.13;;;3.80;99.90;;;;;;5071073;28;20033;-57
2021/12/15 07:16:43;;;;;;;17.42;12.50;;;3.70;99.90;;;;;;5071031;28;20044;-56
2021/12/15 07:19:17;;;;;;;15.25;11.30;;;3.70;99.90;;;;;;5071325;28;20384;-57
2021/12/15 07:21:53;;;;;;;13.80;10.35;;;3.70;99.90;;;;;;5071524;28;20456;-58
2021/12/15 07:24:19;;;;;;;16.45;11.65;;;3.70;99.90;;;;;;5070963;28;20012;-58
2021/12/15 07:26:45;;;;;;;16.73;11.82;;;3.70;99.90;;;;;;5071273;28;20464;-55
2021/12/15 07:29:11;;;;;;;14.75;11.77;;;3.80;99.90;;;;;;5070818;28;20035;-57
2021/12/15 07:31:36;;;;;;;13.73;11.32;;;3.80;99.90;;;;;;5071146;28;20071;-58
2021/12/15 07:34:03;;;;;;;14.13;11.10;;;3.70;99.90;;;;;;5070732;28;20025;-58
2021/12/15 07:36:29;;;;;;;14.25;11.88;;;3.80;99.90;;;;;;5071076;28;20118;-56
2021/12/15 07:38:56;;;;;;;15.43;11.82;;;3.80;99.90;;;;;;5070728;28;20155;-57
2021/12/15 07:41:28;;;;;;;15.07;11.80;;;3.70;99.90;;;;;;5071063;28;20033;-58
2021/12/15 07:43:55;;;;;;;15.73;12.00;;;3.80;99.90;;;;;;5070773;28;20032;-57
2021/12/15 07:46:21;;;;;;;15.90;12.18;;;3.80;99.90;;;;;;5070848;28;20395;-58
2021/12/15 07:48:47;;;;;;;19.27;13.98;;;3.90;99.90;;;;;;5071119;28;20112;-57
2021/12/15 07:51:13;;;;;;;19.85;13.05;;;3.90;99.90;;;;;;5070723;28;20028;-57
2021/12/15 07:53:41;;;;;;;16.95;12.98;;;4.00;99.90;;;;;;5070718;28;20019;-58
2021/12/15 07:56:07;;;;;;;17.17;11.40;;;4.00;99.90;;;;;;5070327;28;20109;-59
2021/12/15 07:58:33;;;;;;;17.05;11.73;;;4.00;99.90;;;;;;5070642;28;20452;-58
2021/12/15 08:01:02;;;;;;;15.77;11.18;;;4.00;99.90;;;;;;5070487;28;20057;-58
2021/12/15 08:03:29;;;;;;;12.63;10.95;;;4.10;99.90;;;;;;5070192;28;20099;-57
2021/12/15 08:05:56;;;;;;;14.38;10.18;;;4.10;99.90;;;;;;5070556;28;20028;-60
2021/12/15 08:08:22;;;;;;;12.80;11.00;;;4.10;99.90;;;;;;5070448;28;20024;-60
2021/12/15 08:10:49;;;;;;;13.25;10.25;;;4.10;99.90;;;;;;5069613;28;20502;-60
2021/12/15 08:13:16;;;;;;;14.23;9.82;;;4.20;99.90;;;;;;5079451;28;20034;-60
2021/12/15 08:15:43;;;;;;;13.25;8.93;;;4.20;99.90;;;;;;5090342;28;20047;-60
2021/12/15 08:18:09;;;;;;;12.00;9.73;;;4.30;99.90;;;;;;5090134;28;20031;-59
2021/12/15 08:20:36;;;;;;;15.18;10.32;;;4.40;99.90;;;;;;5090604;28;20027;-59
2021/12/15 08:23:02;;;;;;;11.85;9.98;;;4.50;99.90;;;;;;5090117;28;20042;-60
2021/12/15 08:25:30;;;;;;;13.10;9.48;;;4.50;99.90;;;;;;5090432;28;20470;-60
2021/12/15 08:27:56;;;;;;;15.23;12.50;;;4.50;99.90;;;;;;5090377;28;20119;-60
2021/12/15 08:30:25;;;;;;;14.55;11.73;;;4.40;99.90;;;;;;5072177;28;20354;-60
2021/12/15 08:32:53;;;;;;;11.80;9.48;;;4.50;99.90;;;;;;5090258;28;20483;-60
2021/12/15 08:35:24;;;;;;;12.68;9.88;;;4.60;99.90;;;;;;5090639;28;20111;-60
2021/12/15 08:37:51;;;;;;;11.30;9.15;;;4.60;99.90;;;;;;5090055;28;20020;-60
2021/12/15 08:40:19;;;;;;;10.65;8.63;;;4.60;99.90;;;;;;5089983;28;20027;-60
2021/12/15 08:42:45;;;;;;;9.63;8.57;;;4.70;99.90;;;;;;5090422;28;20043;-60
2021/12/15 08:45:12;;;;;;;10.95;9.82;;;4.80;99.90;;;;;;5090149;28;20356;-59
2021/12/15 08:47:38;;;;;;;11.38;9.05;;;5.00;99.90;;;;;;5090093;28;20035;-60
2021/12/15 08:50:07;;;;;;;11.00;8.98;;;5.00;99.90;;;;;;5089948;28;20438;-60
2021/12/15 08:52:33;;;;;;;10.73;8.57;;;5.00;99.90;;;;;;5090057;28;20027;-60
2021/12/15 08:55:00;;;;;;;9.82;8.25;;;5.00;99.90;;;;;;5090335;28;20020;-60
2021/12/15 08:57:26;;;;;;;14.23;10.45;;;5.00;99.90;;;;;;5089922;28;20483;-60
2021/12/15 08:59:51;;;;;;;10.18;8.48;;;5.00;99.90;;;;;;5090022;28;20024;-60
2021/12/15 09:02:17;;;;;;;12.88;9.25;;;5.10;99.90;;;;;;5089775;28;20477;-60
2021/12/15 09:04:43;;;;;;;11.77;9.25;;;5.20;99.90;;;;;;5089966;28;20107;-60
2021/12/15 09:07:08;;;;;;;14.23;10.07;;;5.30;99.90;;;;;;5089844;28;20044;-59
2021/12/15 09:09:35;;;;;;;10.30;8.25;;;5.20;99.90;;;;;;5089974;28;20024;-60
2021/12/15 09:12:02;;;;;;;9.90;8.35;;;5.30;99.90;;;;;;5089923;28;20028;-60
2021/12/15 09:14:28;;;;;;;9.40;8.43;;;5.20;99.90;;;;;;5090027;28;20085;-59
2021/12/15 09:16:56;;;;;;;17.73;14.63;;;5.10;99.90;;;;;;5093527;28;20344;-60
2021/12/15 09:19:22;;;;;;;14.13;12.70;;;5.00;99.90;;;;;;5093940;28;20020;-60
2021/12/15 09:21:51;;;;;;;13.68;9.35;;;4.90;99.90;;;;;;5093834;28;20017;-60
2021/12/15 09:24:18;;;;;;;13.43;9.10;;;5.10;99.90;;;;;;5093214;28;20093;-60
2021/12/15 09:26:45;;;;;;;13.27;9.00;;;5.10;99.90;;;;;;5093627;28;20103;-60
2021/12/15 09:29:11;;;;;;;12.30;9.57;;;5.00;99.90;;;;;;5093332;28;20119;-60
2021/12/15 09:31:38;;;;;;;11.40;10.05;;;5.00;99.90;;;;;;5093484;28;20081;-60
2021/12/15 09:34:06;;;;;;;11.95;9.20;;;5.10;99.90;;;;;;5093155;28;20395;-60
2021/12/15 09:36:32;;;;;;;11.30;9.55;;;5.30;99.90;;;;;;5093418;28;20024;-60
2021/12/15 09:39:13;;;;;;;11.25;8.98;;;5.40;99.90;;;;;;5093036;28;20107;-60
2021/12/15 09:41:39;;;;;;;11.02;9.07;;;5.30;99.90;;;;;;5092821;28;20066;-60
2021/12/15 09:44:11;;;;;;;11.07;9.50;;;5.30;99.90;;;;;;5093166;28;20016;-60
2021/12/15 10:02:59;;;;;;;15.13;9.52;;;5.60;99.90;;;;;;5092983;28;20047;-60
2021/12/15 10:11:21;;;;;;;11.45;9.55;;;5.60;99.90;;;;;;5093549;28;20035;-59
2021/12/15 10:19:37;;;;;;;10.57;9.45;;;5.50;99.90;;;;;;5093130;28;20027;-60
2021/12/15 10:22:13;;;;;;;12.52;11.32;;;5.60;99.90;;;;;;5074354;28;20034;-60
2021/12/15 10:25:03;;;;;;;11.65;10.20;;;5.50;99.90;;;;;;5092637;28;20065;-60
2021/12/15 10:27:37;;;;;;;11.00;9.00;;;5.60;99.90;;;;;;5092191;28;20434;-60
2021/12/15 10:30:07;;;;;;;11.90;10.30;;;5.70;99.90;;;;;;5073984;28;20016;-60
2021/12/15 10:32:36;;;;;;;14.43;10.82;;;5.80;99.90;;;;;;5092372;28;20502;-60
2021/12/15 10:35:26;;;;;;;16.10;10.48;;;5.50;99.90;;;;;;5091996;28;20031;-60
2021/12/15 10:38:16;;;;;;;11.68;10.00;;;5.40;99.90;;;;;;5074175;28;20024;-60
2021/12/15 10:40:55;;;;;;;12.52;10.68;;;5.40;99.90;;;;;;5092145;28;20395;-60
2021/12/15 10:43:26;;;;;;;12.98;10.10;;;5.40;99.90;;;;;;5092144;28;20025;-59
2021/12/15 10:45:57;;;;;;;15.63;11.48;;;5.50;99.90;;;;;;5092063;28;20502;-60
2021/12/15 10:48:36;;;;;;;21.27;12.80;;;5.50;99.90;;;;;;5091933;28;20034;-60
2021/12/15 10:51:44;;;;;;;20.27;12.57;;;5.50;99.90;;;;;;5091638;28;20024;-60
2021/12/15 10:54:19;;;;;;;16.90;10.82;;;5.60;99.90;;;;;;5090285;28;20032;-60
2021/12/15 10:56:57;;;;;;;27.50;17.20;;;5.60;99.90;;;;;;5092053;28;20055;-60
2021/12/15 10:59:26;;;;;;;11.05;9.63;;;5.60;99.90;;;;;;5091785;28;20027;-60
2021/12/15 11:01:59;;;;;;;12.00;10.52;;;5.60;99.90;;;;;;5092298;28;20046;-60
2021/12/15 11:04:44;;;;;;;11.50;9.73;;;5.80;99.90;;;;;;5092860;28;20922;-61
2021/12/15 11:07:12;;;;;;;11.50;10.30;;;5.80;99.90;;;;;;5092586;28;20032;-58
2021/12/15 11:09:48;;;;;;;15.93;12.45;;;5.80;99.90;;;;;;5074618;28;20085;-59
2021/12/15 11:12:27;;;;;;;10.55;9.15;;;5.70;99.90;;;;;;5092966;28;20352;-59
2021/12/15 11:14:58;;;;;;;12.55;11.25;;;5.80;99.90;;;;;;5092601;28;20069;-58
2021/12/15 11:17:30;;;;;;;11.10;9.68;;;5.90;99.90;;;;;;5092623;28;20483;-59
2021/12/15 11:20:01;;;;;;;10.32;9.23;;;6.00;99.90;;;;;;5092304;28;20016;-59
2021/12/15 11:22:31;;;;;;;11.07;9.88;;;6.00;99.90;;;;;;5092255;28;20028;-59
2021/12/15 11:24:57;;;;;;;10.98;9.90;;;5.90;99.90;;;;;;5092570;28;20021;-59
2021/12/15 11:27:22;;;;;;;11.27;10.05;;;5.80;99.90;;;;;;5092467;28;20024;-58
2021/12/15 11:29:48;;;;;;;12.80;8.93;;;5.70;99.90;;;;;;5074362;28;20028;-59
2021/12/15 11:32:46;;;;;;;10.85;7.80;;;5.80;99.90;;;;;;5091738;28;20024;-59
2021/12/15 11:35:26;;;;;;;12.00;10.52;;;5.90;99.90;;;;;;5073705;28;20028;-58
2021/12/15 11:37:54;;;;;;;10.10;8.50;;;5.70;99.90;;;;;;5091178;28;20024;-59
2021/12/15 11:40:32;;;;;;;13.80;9.73;;;5.80;99.90;;;;;;5091975;28;20031;-57
2021/12/15 11:42:58;;;;;;;11.50;10.30;;;5.90;99.90;;;;;;5074147;28;20035;-59
2021/12/15 11:45:24;;;;;;;11.85;10.52;;;6.00;99.90;;;;;;5092042;28;20379;-59
2021/12/15 11:47:50;;;;;;;13.68;10.02;;;5.80;99.90;;;;;;5092132;28;20042;-59
2021/12/15 11:50:21;;;;;;;11.93;10.73;;;5.90;99.90;;;;;;5091924;28;20024;-59
2021/12/15 11:52:49;;;;;;;12.90;11.45;;;5.90;99.90;;;;;;5092351;28;20028;-59
2021/12/15 11:55:24;;;;;;;13.65;11.32;;;5.90;99.90;;;;;;5091625;28;20560;-59
2021/12/15 11:57:51;;;;;;;12.07;10.48;;;5.80;99.90;;;;;;5091832;28;20150;-59
2021/12/15 12:00:19;;;;;;;13.18;11.23;;;5.80;99.90;;;;;;5091630;28;20031;-59
2021/12/15 12:02:48;;;;;;;13.93;10.80;;;5.80;99.90;;;;;;5091759;28;20031;-59
2021/12/15 12:05:22;;;;;;;10.35;9.18;;;5.80;99.90;;;;;;5090289;28;20028;-60
2021/12/15 12:07:58;;;;;;;9.43;8.43;;;5.80;99.90;;;;;;5091073;28;20045;-59
2021/12/15 12:10:34;;;;;;;10.73;8.38;;;5.80;99.90;;;;;;5091376;28;20487;-59
2021/12/15 12:13:09;;;;;;;12.00;9.43;;;5.80;99.90;;;;;;5091739;28;20035;-59
2021/12/15 12:15:40;;;;;;;11.40;9.13;;;5.80;99.90;;;;;;5091506;28;20121;-59
2021/12/15 12:18:17;;;;;;;14.02;9.88;;;5.90;99.90;;;;;;5091517;28;20024;-59
2021/12/15 12:20:49;;;;;;;9.43;8.45;;;5.90;99.90;;;;;;5072582;28;20047;-59
2021/12/15 12:23:18;;;;;;;9.45;8.45;;;5.80;99.90;;;;;;5090390;28;20119;-59
2021/12/15 12:25:49;;;;;;;12.20;8.75;;;5.90;99.90;;;;;;5090284;28;20028;-59
2021/12/15 12:28:19;;;;;;;9.57;8.10;;;5.90;99.90;;;;;;5090642;28;20024;-59
2021/12/15 12:31:06;;;;;;;9.63;8.57;;;5.90;99.90;;;;;;5090269;28;20535;-59
2021/12/15 12:33:34;;;;;;;9.98;8.93;;;5.90;99.90;;;;;;5089787;28;20047;-59
2021/12/15 12:36:03;;;;;;;12.63;10.13;;;5.90;99.90;;;;;;5090424;28;20020;-59
2021/12/15 12:38:31;;;;;;;13.35;9.93;;;5.90;99.90;;;;;;5072307;28;20031;-59
2021/12/15 12:41:02;;;;;;;13.55;12.05;;;6.00;99.90;;;;;;5091012;28;20024;-59
2021/12/15 12:43:32;;;;;;;11.93;9.80;;;6.00;99.90;;;;;;5091586;28;20059;-59
2021/12/15 12:46:19;;;;;;;10.88;9.75;;;6.00;99.90;;;;;;5091151;28;20032;-59
2021/12/15 13:00:00;;;;;;;12.05;10.55;;;6.00;99.90;;;;;;5095102;28;20485;-59
2021/12/15 13:02:36;;;;;;;17.02;14.38;;;6.00;99.90;;;;;;5095185;28;20023;-59
2021/12/15 13:05:03;;;;;;;13.50;10.63;;;5.90;99.90;;;;;;5094949;28;20050;-59
2021/12/15 13:07:52;;;;;;;15.73;11.85;;;5.90;99.90;;;;;;5095365;28;20028;-59
2021/12/15 13:10:19;;;;;;;17.33;15.45;;;5.70;99.90;;;;;;5094208;28;20085;-59
2021/12/15 13:12:49;;;;;;;17.20;15.13;;;5.70;99.90;;;;;;5094000;28;20024;-59
2021/12/15 13:15:21;;;;;;;15.02;12.00;;;5.60;99.90;;;;;;5093830;28;20024;-59
2021/12/15 13:18:11;;;;;;;13.70;10.80;;;5.70;99.90;;;;;;5075368;28;20028;-59
2021/12/15 13:20:36;;;;;;;47.85;28.45;;;5.80;99.90;;;;;;5093725;28;20012;-59
2021/12/15 13:23:31;;;;;;;21.20;14.48;;;5.80;99.90;;;;;;5093415;28;20027;-59
2021/12/15 13:28:47;;;;;;;12.93;11.35;;;5.80;99.90;;;;;;5095029;28;20035;-59
2021/12/15 13:31:21;;;;;;;18.42;12.65;;;5.70;99.90;;;;;;5093626;28;20361;-59
2021/12/15 13:33:49;;;;;;;;;;;5.60;99.90;;;;;;5094233;28;20028;-59
2021/12/15 13:36:40;;;;;;;21.85;12.10;;;5.60;99.90;;;;;;5074810;28;19900;-59
2021/12/15 13:39:11;;;;;;;14.13;9.95;;;5.50;99.90;;;;;;5093288;28;20376;-59
2021/12/15 13:41:39;;;;;;;15.02;10.25;;;5.70;99.90;;;;;;5093375;28;20024;-59
2021/12/15 13:44:30;;;;;;;11.75;9.52;;;5.80;99.90;;;;;;5093259;28;20016;-59
2021/12/15 13:47:07;;;;;;;18.00;11.88;;;5.70;99.90;;;;;;5093574;28;20055;-58
2021/12/15 13:49:47;;;;;;;13.57;11.63;;;5.60;99.90;;;;;;5093256;28;20024;-59
2021/12/15 13:52:16;;;;;;;18.52;12.95;;;5.50;99.90;;;;;;5092321;28;20047;-59
2021/12/15 13:54:42;;;;;;;18.60;11.18;;;5.40;99.90;;;;;;5089806;28;20036;-59
2021/12/15 13:57:13;;;;;;;19.27;13.63;;;5.50;99.90;;;;;;5081778;28;20035;-59
2021/12/15 13:59:47;;;;;;;21.90;14.07;;;5.50;99.90;;;;;;5081853;28;20071;-59
2021/12/15 14:02:30;;;;;;;15.55;13.13;;;5.50;99.90;;;;;;5099726;28;20027;-59
2021/12/15 14:05:07;;;;;;;21.88;11.65;;;5.50;99.90;;;;;;5083186;28;20081;-59
2021/12/15 14:07:58;;;;;;;14.02;12.23;;;5.50;99.90;;;;;;5083703;28;20395;-59
2021/12/15 14:10:24;;;;;;;17.10;14.00;;;5.40;99.90;;;;;;5083027;28;20024;-59
2021/12/15 14:12:52;;;;;;;16.02;12.88;;;5.50;99.90;;;;;;5082626;28;20028;-59
2021/12/15 14:15:35;;;;;;;20.42;13.13;;;5.50;99.90;;;;;;5080027;28;20162;-59
2021/12/15 14:18:01;;;;;;;;;;;5.30;99.90;;;;;;5083259;28;20043;-59
2021/12/15 14:20:28;;;;;;;16.40;14.38;;;5.30;99.90;;;;;;5083237;28;19908;-59
2021/12/15 14:23:00;;;;;;;18.85;15.52;;;5.30;99.90;;;;;;5082378;28;20359;-59
2021/12/15 14:25:27;;;;;;;23.42;14.35;;;5.20;99.90;;;;;;5081662;28;20036;-59
2021/12/15 14:27:53;;;;;;;19.48;14.35;;;5.20;99.90;;;;;;5064209;28;20047;-59
2021/12/15 14:30:20;;;;;;;19.33;15.52;;;5.20;99.90;;;;;;5082974;28;20452;-59